Duesseldorf, Germany

12:37 PM CEST on July 30, 2016 (GMT +0200)
Dusseldorf | | Change Station

Elev 144 ft 51.30 °N, 6.77 °E | Updated 17 minutes ago

Scattered Clouds
Scattered Clouds
70 °F
Feels Like 70 °F
N
7
Wind Variable Wind from WSW

Today
High -- | Low -- °F
--% Chance of Precip.
Yesterday
High -- | Low -- °F
Precip. -- in
Pressure 29.92 in
Visibility 6.2 miles
Clouds Scattered Clouds 2400 ft
Dew Point 57 °F
Humidity 64%
Rainfall 0.00 in
Snow Depth Not available.
5:55 AM 9:22 PM
Waning Crescent, 14% visible
METAR EDDL 301020Z 25006KT 200V310 9999 SCT024 21/14 Q1013 NOSIG
Pressure 29.92 in
Visibility 6.2 miles
Clouds Scattered Clouds 2400 ft
Dew Point 57 °F
Humidity 64%
Rainfall 0.00 in
Snow Depth Not available.
5:55 AM 9:22 PM
Waning Crescent, 14% visible
METAR EDDL 301020Z 25006KT 200V310 9999 SCT024 21/14 Q1013 NOSIG

10-Day Weather Forecast

×

Almanac

Astronomy

Jul. 30, 2016 Rise Set
Actual Time
Civil Twilight
Nautical Twilight
Astronomical Twilight
Moon
Length of Visible Light
Length of Day
Tomorrow will be .
, % of the Moon is Illuminated

Today's Extremes

Country Highs Country Lows

Community

WunderPhotos

Upload Photos

1,928,530 photos uploaded!

WunderBlog® & News

Nearby

Air Quality

  Air Quality AQ Index Pollutant
Not available.

Snow Depth

Station Depth Elevation

Earthquake Activity

City Distance Mag. Time & Date
Minimum magnitude displayed is 2.5.

Coastal Water Temperatures

Place Temperature

Stations

Nearby Weather Stations

Station Location Temp. Windchill Dew Point Humidity Wind Precip. Elev Updated Type